sensor_id;sensor_type;location;lat;lon;timestamp;pressure;altitude;pressure_sealevel;temperature;humidity
63819;BME280;49970;54.976;73.248;2023-05-20T00:01:44;101492.50;;;11.90;54.59
63819;BME280;49970;54.976;73.248;2023-05-20T00:04:10;101494.31;;;11.90;54.47
63819;BME280;49970;54.976;73.248;2023-05-20T00:06:36;101503.97;;;11.91;54.32
63819;BME280;49970;54.976;73.248;2023-05-20T00:09:03;101509.13;;;11.94;54.80
63819;BME280;49970;54.976;73.248;2023-05-20T00:11:29;101495.94;;;11.92;54.71
63819;BME280;49970;54.976;73.248;2023-05-20T00:13:56;101500.19;;;11.95;54.48
63819;BME280;49970;54.976;73.248;2023-05-20T00:16:22;101506.13;;;12.00;54.65
63819;BME280;49970;54.976;73.248;2023-05-20T00:18:49;101512.19;;;12.02;54.26
63819;BME280;49970;54.976;73.248;2023-05-20T00:21:15;101503.63;;;11.97;54.50
63819;BME280;49970;54.976;73.248;2023-05-20T00:23:41;101509.53;;;12.02;54.60
63819;BME280;49970;54.976;73.248;2023-05-20T00:26:07;101511.91;;;12.07;54.84
63819;BME280;49970;54.976;73.248;2023-05-20T00:28:34;101509.94;;;12.10;54.84
63819;BME280;49970;54.976;73.248;2023-05-20T00:31:00;101503.09;;;12.06;54.65
63819;BME280;49970;54.976;73.248;2023-05-20T00:33:26;101520.03;;;12.19;54.75
63819;BME280;49970;54.976;73.248;2023-05-20T00:35:53;101519.00;;;12.22;54.96
63819;BME280;49970;54.976;73.248;2023-05-20T00:38:19;101515.38;;;12.23;54.49
63819;BME280;49970;54.976;73.248;2023-05-20T00:40:46;101518.81;;;12.25;54.28
63819;BME280;49970;54.976;73.248;2023-05-20T00:43:32;101523.88;;;12.30;54.75
63819;BME280;49970;54.976;73.248;2023-05-20T00:52:08;101527.00;;;12.36;54.13
63819;BME280;49970;54.976;73.248;2023-05-20T00:55:58;101513.81;;;12.35;54.52
63819;BME280;49970;54.976;73.248;2023-05-20T00:59:49;101531.63;;;12.63;54.72
63819;BME280;49970;54.976;73.248;2023-05-20T01:04:05;101530.72;;;12.92;53.99
63819;BME280;49970;54.976;73.248;2023-05-20T01:07:56;101526.31;;;13.20;53.47
63819;BME280;49970;54.976;73.248;2023-05-20T01:11:36;101535.16;;;13.49;52.92
63819;BME280;49970;54.976;73.248;2023-05-20T01:14:06;101524.75;;;13.73;53.00
63819;BME280;49970;54.976;73.248;2023-05-20T01:16:34;101529.78;;;14.05;52.20
63819;BME280;49970;54.976;73.248;2023-05-20T01:19:04;101529.00;;;14.30;51.81
63819;BME280;49970;54.976;73.248;2023-05-20T01:21:36;101529.16;;;14.54;51.40
63819;BME280;49970;54.976;73.248;2023-05-20T01:24:03;101525.78;;;14.77;51.17
63819;BME280;49970;54.976;73.248;2023-05-20T01:26:32;101528.00;;;15.09;50.73
63819;BME280;49970;54.976;73.248;2023-05-20T01:29:04;101509.00;;;15.26;49.51
63819;BME280;49970;54.976;73.248;2023-05-20T01:31:32;101528.25;;;15.55;49.15
63819;BME280;49970;54.976;73.248;2023-05-20T01:34:03;101536.56;;;15.63;49.29
63819;BME280;49970;54.976;73.248;2023-05-20T01:36:31;101530.50;;;15.85;48.82
63819;BME280;49970;54.976;73.248;2023-05-20T01:38:58;101534.63;;;16.13;48.00
63819;BME280;49970;54.976;73.248;2023-05-20T01:41:27;101538.50;;;16.33;48.14
63819;BME280;49970;54.976;73.248;2023-05-20T01:43:54;101536.31;;;16.74;47.69
63819;BME280;49970;54.976;73.248;2023-05-20T01:46:21;101540.63;;;17.10;46.89
63819;BME280;49970;54.976;73.248;2023-05-20T01:48:47;101540.72;;;17.42;46.52
63819;BME280;49970;54.976;73.248;2023-05-20T01:51:14;101533.75;;;17.73;46.33
63819;BME280;49970;54.976;73.248;2023-05-20T01:53:42;101529.41;;;18.04;45.91
63819;BME280;49970;54.976;73.248;2023-05-20T01:56:09;101536.09;;;18.31;45.21
63819;BME280;49970;54.976;73.248;2023-05-20T01:58:35;101526.78;;;18.46;44.60
63819;BME280;49970;54.976;73.248;2023-05-20T02:01:02;101536.06;;;18.42;45.09
63819;BME280;49970;54.976;73.248;2023-05-20T02:03:29;101528.84;;;18.63;44.56
63819;BME280;49970;54.976;73.248;2023-05-20T02:05:56;101522.84;;;18.92;44.73
63819;BME280;49970;54.976;73.248;2023-05-20T02:08:22;101525.81;;;19.20;43.90
63819;BME280;49970;54.976;73.248;2023-05-20T02:11:08;101522.03;;;19.32;43.83
63819;BME280;49970;54.976;73.248;2023-05-20T02:15:24;101529.22;;;19.72;43.36
63819;BME280;49970;54.976;73.248;2023-05-20T02:23:05;101525.88;;;20.18;42.53
63819;BME280;49970;54.976;73.248;2023-05-20T02:27:01;101529.69;;;20.25;43.13
63819;BME280;49970;54.976;73.248;2023-05-20T02:29:49;101526.16;;;20.25;42.69
63819;BME280;49970;54.976;73.248;2023-05-20T02:33:19;101530.22;;;19.80;43.21
63819;BME280;49970;54.976;73.248;2023-05-20T02:35:45;101519.09;;;19.45;43.44
63819;BME280;49970;54.976;73.248;2023-05-20T02:38:13;101525.03;;;19.08;43.73
63819;BME280;49970;54.976;73.248;2023-05-20T02:40:43;101525.09;;;18.87;44.48
63819;BME280;49970;54.976;73.248;2023-05-20T02:43:09;101519.75;;;18.97;43.85
63819;BME280;49970;54.976;73.248;2023-05-20T02:45:56;101515.78;;;18.91;44.14
63819;BME280;49970;54.976;73.248;2023-05-20T02:49:46;101520.03;;;18.94;44.32
63819;BME280;49970;54.976;73.248;2023-05-20T02:57:26;101511.63;;;18.77;44.20
63819;BME280;49970;54.976;73.248;2023-05-20T03:01:42;101517.47;;;18.50;44.58
63819;BME280;49970;54.976;73.248;2023-05-20T03:05:34;101524.69;;;18.50;44.75
63819;BME280;49970;54.976;73.248;2023-05-20T03:09:09;101512.72;;;18.54;44.53
63819;BME280;49970;54.976;73.248;2023-05-20T03:11:37;101518.28;;;18.62;44.21
63819;BME280;49970;54.976;73.248;2023-05-20T03:14:03;101518.13;;;18.63;44.32
63819;BME280;49970;54.976;73.248;2023-05-20T03:16:30;101518.88;;;18.86;43.72
63819;BME280;49970;54.976;73.248;2023-05-20T03:18:57;101517.50;;;19.02;43.63
63819;BME280;49970;54.976;73.248;2023-05-20T03:21:23;101510.09;;;19.15;43.67
63819;BME280;49970;54.976;73.248;2023-05-20T03:23:50;101513.28;;;18.99;42.87
63819;BME280;49970;54.976;73.248;2023-05-20T03:26:17;101515.41;;;18.75;43.32
63819;BME280;49970;54.976;73.248;2023-05-20T03:28:44;101508.63;;;18.59;43.52
63819;BME280;49970;54.976;73.248;2023-05-20T03:31:10;101507.09;;;18.78;43.71
63819;BME280;49970;54.976;73.248;2023-05-20T03:33:36;101503.59;;;18.87;43.26
63819;BME280;49970;54.976;73.248;2023-05-20T03:36:03;101499.34;;;18.84;43.39
63819;BME280;49970;54.976;73.248;2023-05-20T03:38:30;101504.09;;;19.02;43.10
63819;BME280;49970;54.976;73.248;2023-05-20T03:40:56;101493.75;;;18.97;42.73
63819;BME280;49970;54.976;73.248;2023-05-20T03:43:22;101492.47;;;18.91;43.41
63819;BME280;49970;54.976;73.248;2023-05-20T03:45:50;101493.91;;;18.96;43.65
63819;BME280;49970;54.976;73.248;2023-05-20T03:48:16;101493.06;;;18.95;43.16
63819;BME280;49970;54.976;73.248;2023-05-20T03:50:42;101488.13;;;19.00;42.98
63819;BME280;49970;54.976;73.248;2023-05-20T03:53:10;101497.78;;;19.12;42.85
63819;BME280;49970;54.976;73.248;2023-05-20T03:55:39;101462.13;;;19.01;42.69
63819;BME280;49970;54.976;73.248;2023-05-20T03:58:05;101482.09;;;19.17;42.84
63819;BME280;49970;54.976;73.248;2023-05-20T04:00:33;101480.56;;;19.25;41.74
63819;BME280;49970;54.976;73.248;2023-05-20T04:03:00;101473.09;;;19.28;42.63
63819;BME280;49970;54.976;73.248;2023-05-20T04:05:27;101474.97;;;19.37;41.74
63819;BME280;49970;54.976;73.248;2023-05-20T04:07:54;101474.13;;;19.37;41.52
63819;BME280;49970;54.976;73.248;2023-05-20T04:10:23;101483.69;;;19.30;41.67
63819;BME280;49970;54.976;73.248;2023-05-20T04:12:50;101475.34;;;19.23;41.84
63819;BME280;49970;54.976;73.248;2023-05-20T04:15:20;101472.09;;;19.20;41.87
63819;BME280;49970;54.976;73.248;2023-05-20T04:17:54;101455.44;;;19.35;40.84
63819;BME280;49970;54.976;73.248;2023-05-20T04:20:20;101469.09;;;19.63;40.98
63819;BME280;49970;54.976;73.248;2023-05-20T04:22:50;101471.50;;;19.76;40.44
63819;BME280;49970;54.976;73.248;2023-05-20T04:25:17;101471.94;;;19.71;40.73
63819;BME280;49970;54.976;73.248;2023-05-20T04:27:43;101465.00;;;19.78;40.85
63819;BME280;49970;54.976;73.248;2023-05-20T04:30:10;101460.47;;;19.79;40.80
63819;BME280;49970;54.976;73.248;2023-05-20T04:32:40;101455.53;;;19.84;40.43
63819;BME280;49970;54.976;73.248;2023-05-20T04:35:06;101454.81;;;19.92;40.45
63819;BME280;49970;54.976;73.248;2023-05-20T04:37:37;101461.47;;;19.97;40.30
63819;BME280;49970;54.976;73.248;2023-05-20T04:40:05;101454.66;;;19.93;39.62
63819;BME280;49970;54.976;73.248;2023-05-20T04:42:32;101455.25;;;19.97;39.95
63819;BME280;49970;54.976;73.248;2023-05-20T04:45:03;101458.91;;;20.05;39.00
63819;BME280;49970;54.976;73.248;2023-05-20T04:47:32;101453.41;;;19.97;38.46
63819;BME280;49970;54.976;73.248;2023-05-20T04:50:08;101454.38;;;20.06;37.88
63819;BME280;49970;54.976;73.248;2023-05-20T04:52:40;101443.91;;;20.12;37.34
63819;BME280;49970;54.976;73.248;2023-05-20T04:55:09;101453.09;;;20.10;37.30
63819;BME280;49970;54.976;73.248;2023-05-20T04:57:36;101446.44;;;20.14;37.84
63819;BME280;49970;54.976;73.248;2023-05-20T05:00:07;101441.31;;;20.30;37.69
63819;BME280;49970;54.976;73.248;2023-05-20T05:02:35;101433.53;;;20.37;37.74
63819;BME280;49970;54.976;73.248;2023-05-20T05:05:02;101432.50;;;20.48;37.31
63819;BME280;49970;54.976;73.248;2023-05-20T05:07:28;101436.06;;;20.58;37.26
63819;BME280;49970;54.976;73.248;2023-05-20T05:09:55;101425.16;;;20.50;37.25
63819;BME280;49970;54.976;73.248;2023-05-20T05:12:21;101425.56;;;20.55;37.90
63819;BME280;49970;54.976;73.248;2023-05-20T05:14:48;101425.50;;;20.74;36.97
63819;BME280;49970;54.976;73.248;2023-05-20T05:17:15;101427.88;;;20.77;36.67
63819;BME280;49970;54.976;73.248;2023-05-20T05:19:41;101411.50;;;20.71;36.75
63819;BME280;49970;54.976;73.248;2023-05-20T05:22:07;101416.03;;;20.70;36.97
63819;BME280;49970;54.976;73.248;2023-05-20T05:24:36;101427.59;;;20.80;36.76
63819;BME280;49970;54.976;73.248;2023-05-20T05:27:04;101423.38;;;20.78;36.91
63819;BME280;49970;54.976;73.248;2023-05-20T05:29:30;101414.84;;;20.82;36.54
63819;BME280;49970;54.976;73.248;2023-05-20T05:31:57;101408.28;;;20.95;36.96
63819;BME280;49970;54.976;73.248;2023-05-20T05:34:23;101408.59;;;21.09;37.20
63819;BME280;49970;54.976;73.248;2023-05-20T05:36:49;101410.91;;;21.04;36.47
63819;BME280;49970;54.976;73.248;2023-05-20T05:39:15;101415.91;;;20.99;37.27
63819;BME280;49970;54.976;73.248;2023-05-20T05:41:41;101401.97;;;21.04;37.17
63819;BME280;49970;54.976;73.248;2023-05-20T05:44:08;101414.53;;;21.13;36.88
63819;BME280;49970;54.976;73.248;2023-05-20T05:46:34;101406.16;;;21.16;36.65
63819;BME280;49970;54.976;73.248;2023-05-20T05:49:01;101411.03;;;21.30;36.62
63819;BME280;49970;54.976;73.248;2023-05-20T05:51:28;101409.00;;;21.42;36.26
63819;BME280;49970;54.976;73.248;2023-05-20T05:53:56;101409.91;;;21.51;36.58
63819;BME280;49970;54.976;73.248;2023-05-20T05:56:23;101405.44;;;21.42;37.07
63819;BME280;49970;54.976;73.248;2023-05-20T05:58:49;101396.69;;;21.30;36.92
63819;BME280;49970;54.976;73.248;2023-05-20T06:01:16;101390.28;;;21.13;36.71
63819;BME280;49970;54.976;73.248;2023-05-20T06:03:43;101414.47;;;21.23;37.20
63819;BME280;49970;54.976;73.248;2023-05-20T06:06:09;101392.53;;;21.18;37.06
63819;BME280;49970;54.976;73.248;2023-05-20T06:08:35;101397.53;;;21.12;36.82
63819;BME280;49970;54.976;73.248;2023-05-20T06:11:02;101389.44;;;21.12;36.36
63819;BME280;49970;54.976;73.248;2023-05-20T06:13:30;101400.22;;;21.12;36.79
63819;BME280;49970;54.976;73.248;2023-05-20T06:15:56;101384.91;;;21.13;36.90
63819;BME280;49970;54.976;73.248;2023-05-20T06:18:24;101364.13;;;21.23;36.54
63819;BME280;49970;54.976;73.248;2023-05-20T06:20:58;101374.41;;;21.37;36.71
63819;BME280;49970;54.976;73.248;2023-05-20T06:23:25;101370.13;;;21.45;36.67
63819;BME280;49970;54.976;73.248;2023-05-20T06:25:59;101363.91;;;21.52;36.69
63819;BME280;49970;54.976;73.248;2023-05-20T06:28:26;101366.03;;;21.58;37.17
63819;BME280;49970;54.976;73.248;2023-05-20T06:30:56;101378.78;;;21.56;37.04
63819;BME280;49970;54.976;73.248;2023-05-20T06:33:24;101361.94;;;21.54;37.31
63819;BME280;49970;54.976;73.248;2023-05-20T06:35:55;101351.16;;;21.54;37.29
63819;BME280;49970;54.976;73.248;2023-05-20T06:38:22;101347.34;;;21.65;37.18
63819;BME280;49970;54.976;73.248;2023-05-20T06:40:50;101354.91;;;21.79;38.13
63819;BME280;49970;54.976;73.248;2023-05-20T06:43:17;101346.75;;;21.71;37.25
63819;BME280;49970;54.976;73.248;2023-05-20T06:46:03;101345.13;;;21.60;37.90
63819;BME280;49970;54.976;73.248;2023-05-20T06:48:35;101354.75;;;21.63;37.93
63819;BME280;49970;54.976;73.248;2023-05-20T06:51:01;101342.13;;;21.63;37.75
63819;BME280;49970;54.976;73.248;2023-05-20T06:53:27;101343.44;;;21.59;38.33
63819;BME280;49970;54.976;73.248;2023-05-20T06:55:54;101347.22;;;21.67;38.06
63819;BME280;49970;54.976;73.248;2023-05-20T06:58:20;101344.34;;;21.68;37.90
63819;BME280;49970;54.976;73.248;2023-05-20T07:00:47;101343.69;;;21.66;37.48
63819;BME280;49970;54.976;73.248;2023-05-20T07:03:14;101342.50;;;21.69;37.46
63819;BME280;49970;54.976;73.248;2023-05-20T07:05:40;101337.44;;;21.66;37.55
63819;BME280;49970;54.976;73.248;2023-05-20T07:08:10;101326.13;;;21.62;37.74
63819;BME280;49970;54.976;73.248;2023-05-20T07:10:36;101317.69;;;21.65;38.05
63819;BME280;49970;54.976;73.248;2023-05-20T07:13:03;101314.69;;;21.68;37.77
63819;BME280;49970;54.976;73.248;2023-05-20T07:15:30;101318.69;;;21.64;38.11
63819;BME280;49970;54.976;73.248;2023-05-20T07:17:57;101313.84;;;21.68;38.55
63819;BME280;49970;54.976;73.248;2023-05-20T07:20:24;101319.47;;;21.74;37.75
63819;BME280;49970;54.976;73.248;2023-05-20T07:22:51;101314.09;;;21.74;37.93
63819;BME280;49970;54.976;73.248;2023-05-20T07:25:23;101304.19;;;21.83;37.63
63819;BME280;49970;54.976;73.248;2023-05-20T07:27:51;101312.16;;;21.93;37.98
63819;BME280;49970;54.976;73.248;2023-05-20T07:30:17;101296.69;;;21.95;38.32
63819;BME280;49970;54.976;73.248;2023-05-20T07:32:52;101297.13;;;21.90;37.66
63819;BME280;49970;54.976;73.248;2023-05-20T07:35:18;101290.00;;;21.81;37.97
63819;BME280;49970;54.976;73.248;2023-05-20T07:37:44;101299.63;;;21.83;38.14
63819;BME280;49970;54.976;73.248;2023-05-20T07:40:11;101295.94;;;21.84;37.81
63819;BME280;49970;54.976;73.248;2023-05-20T07:42:38;101301.50;;;21.83;38.22
63819;BME280;49970;54.976;73.248;2023-05-20T07:45:05;101282.19;;;21.70;37.62
63819;BME280;49970;54.976;73.248;2023-05-20T07:47:32;101283.41;;;21.75;38.02
63819;BME280;49970;54.976;73.248;2023-05-20T07:49:59;101287.94;;;21.75;38.05
63819;BME280;49970;54.976;73.248;2023-05-20T07:52:26;101278.19;;;21.74;38.20
63819;BME280;49970;54.976;73.248;2023-05-20T07:54:52;101274.59;;;21.73;38.08
63819;BME280;49970;54.976;73.248;2023-05-20T07:57:19;101277.78;;;21.69;38.50
63819;BME280;49970;54.976;73.248;2023-05-20T07:59:45;101274.94;;;21.70;37.79
63819;BME280;49970;54.976;73.248;2023-05-20T08:02:12;101268.72;;;21.70;38.02
63819;BME280;49970;54.976;73.248;2023-05-20T08:04:58;101266.84;;;21.70;37.38
63819;BME280;49970;54.976;73.248;2023-05-20T08:08:29;101261.41;;;21.62;38.14
63819;BME280;49970;54.976;73.248;2023-05-20T08:11:01;101267.16;;;21.67;38.56
63819;BME280;49970;54.976;73.248;2023-05-20T08:13:30;101257.44;;;21.74;38.34
63819;BME280;49970;54.976;73.248;2023-05-20T08:15:58;101251.56;;;21.79;38.10
63819;BME280;49970;54.976;73.248;2023-05-20T08:18:25;101242.69;;;21.86;38.47
63819;BME280;49970;54.976;73.248;2023-05-20T08:20:52;101257.38;;;21.92;37.34
63819;BME280;49970;54.976;73.248;2023-05-20T08:23:19;101248.53;;;21.82;37.34
63819;BME280;49970;54.976;73.248;2023-05-20T08:25:45;101259.81;;;21.77;37.69
63819;BME280;49970;54.976;73.248;2023-05-20T08:28:16;101244.47;;;21.78;37.62
63819;BME280;49970;54.976;73.248;2023-05-20T08:30:44;101238.22;;;21.77;37.95
63819;BME280;49970;54.976;73.248;2023-05-20T08:33:10;101236.53;;;21.76;37.96
63819;BME280;49970;54.976;73.248;2023-05-20T08:35:37;101233.19;;;21.74;37.45
63819;BME280;49970;54.976;73.248;2023-05-20T08:38:06;101240.88;;;21.69;37.58
63819;BME280;49970;54.976;73.248;2023-05-20T08:41:04;101238.34;;;21.68;37.27
63819;BME280;49970;54.976;73.248;2023-05-20T08:44:54;101226.44;;;21.52;37.70
63819;BME280;49970;54.976;73.248;2023-05-20T08:48:52;101236.25;;;21.53;37.47
63819;BME280;49970;54.976;73.248;2023-05-20T08:52:12;101237.41;;;21.51;38.01
63819;BME280;49970;54.976;73.248;2023-05-20T08:54:46;101229.47;;;21.49;37.87
63819;BME280;49970;54.976;73.248;2023-05-20T08:57:13;101221.22;;;21.51;37.60
63819;BME280;49970;54.976;73.248;2023-05-20T08:59:43;101218.34;;;21.52;37.87
63819;BME280;49970;54.976;73.248;2023-05-20T09:02:10;101214.69;;;21.53;37.71
63819;BME280;49970;54.976;73.248;2023-05-20T09:04:36;101223.25;;;21.57;37.98
63819;BME280;49970;54.976;73.248;2023-05-20T09:07:03;101206.94;;;21.58;37.45
63819;BME280;49970;54.976;73.248;2023-05-20T09:09:34;101206.72;;;21.52;37.69
63819;BME280;49970;54.976;73.248;2023-05-20T09:12:01;101213.34;;;21.57;37.05
63819;BME280;49970;54.976;73.248;2023-05-20T09:14:29;101223.97;;;21.59;37.52
63819;BME280;49970;54.976;73.248;2023-05-20T09:17:11;101211.34;;;21.59;37.68
63819;BME280;49970;54.976;73.248;2023-05-20T09:19:38;101199.34;;;21.54;37.10
63819;BME280;49970;54.976;73.248;2023-05-20T09:22:04;101215.56;;;21.62;37.56
63819;BME280;49970;54.976;73.248;2023-05-20T09:24:31;101212.22;;;21.68;37.41
63819;BME280;49970;54.976;73.248;2023-05-20T09:26:57;101203.81;;;21.71;37.64
63819;BME280;49970;54.976;73.248;2023-05-20T09:29:25;101198.78;;;21.76;37.96
63819;BME280;49970;54.976;73.248;2023-05-20T09:31:51;101222.44;;;21.82;38.10
63819;BME280;49970;54.976;73.248;2023-05-20T09:34:20;101203.56;;;21.82;37.91
63819;BME280;49970;54.976;73.248;2023-05-20T09:36:49;101208.97;;;21.82;38.16
63819;BME280;49970;54.976;73.248;2023-05-20T09:39:23;101200.38;;;21.87;38.53
63819;BME280;49970;54.976;73.248;2023-05-20T09:42:04;101198.34;;;21.89;37.64
63819;BME280;49970;54.976;73.248;2023-05-20T09:44:32;101209.63;;;21.84;37.65
63819;BME280;49970;54.976;73.248;2023-05-20T09:47:00;101198.00;;;21.84;38.10
63819;BME280;49970;54.976;73.248;2023-05-20T09:49:47;101201.03;;;21.89;37.74
63819;BME280;49970;54.976;73.248;2023-05-20T09:52:15;101194.63;;;21.90;37.68
63819;BME280;49970;54.976;73.248;2023-05-20T09:54:43;101193.63;;;21.83;37.82
63819;BME280;49970;54.976;73.248;2023-05-20T09:57:09;101198.47;;;21.79;38.06
63819;BME280;49970;54.976;73.248;2023-05-20T09:59:39;101198.63;;;21.78;38.11
63819;BME280;49970;54.976;73.248;2023-05-20T10:02:05;101181.09;;;21.74;37.57
63819;BME280;49970;54.976;73.248;2023-05-20T10:04:33;101190.22;;;21.81;38.05
63819;BME280;49970;54.976;73.248;2023-05-20T10:07:16;101186.72;;;21.88;38.09
63819;BME280;49970;54.976;73.248;2023-05-20T10:12:50;101183.53;;;21.93;37.39
63819;BME280;49970;54.976;73.248;2023-05-20T10:21:00;101169.69;;;21.88;37.80
63819;BME280;49970;54.976;73.248;2023-05-20T10:23:28;101169.69;;;21.88;37.55
63819;BME280;49970;54.976;73.248;2023-05-20T10:25:57;101176.41;;;21.84;37.40
63819;BME280;49970;54.976;73.248;2023-05-20T10:28:41;101177.44;;;21.83;37.51
63819;BME280;49970;54.976;73.248;2023-05-20T10:31:20;101187.03;;;21.85;37.93
63819;BME280;49970;54.976;73.248;2023-05-20T10:33:47;101185.19;;;21.86;37.76
63819;BME280;49970;54.976;73.248;2023-05-20T10:36:25;101175.88;;;21.80;37.42
63819;BME280;49970;54.976;73.248;2023-05-20T10:38:53;101179.25;;;21.74;37.56
63819;BME280;49970;54.976;73.248;2023-05-20T10:41:20;101183.63;;;21.75;37.12
63819;BME280;49970;54.976;73.248;2023-05-20T10:44:01;101169.44;;;21.73;37.49
63819;BME280;49970;54.976;73.248;2023-05-20T10:46:29;101172.53;;;21.78;37.04
63819;BME280;49970;54.976;73.248;2023-05-20T10:48:55;101172.53;;;21.78;36.65
63819;BME280;49970;54.976;73.248;2023-05-20T10:51:23;101171.81;;;21.76;37.03
63819;BME280;49970;54.976;73.248;2023-05-20T10:53:52;101167.44;;;21.75;36.92
63819;BME280;49970;54.976;73.248;2023-05-20T10:56:22;101163.38;;;21.71;36.90
63819;BME280;49970;54.976;73.248;2023-05-20T10:58:49;101173.84;;;21.74;36.69
63819;BME280;49970;54.976;73.248;2023-05-20T11:01:16;101175.22;;;21.78;36.54
63819;BME280;49970;54.976;73.248;2023-05-20T11:03:44;101165.09;;;21.80;36.57
63819;BME280;49970;54.976;73.248;2023-05-20T11:06:15;101167.63;;;21.74;36.18
63819;BME280;49970;54.976;73.248;2023-05-20T11:08:42;101165.22;;;21.71;36.32
63819;BME280;49970;54.976;73.248;2023-05-20T11:11:13;101169.63;;;21.72;36.71
63819;BME280;49970;54.976;73.248;2023-05-20T11:13:40;101167.75;;;21.72;36.51
63819;BME280;49970;54.976;73.248;2023-05-20T11:16:07;101157.97;;;21.71;36.51
63819;BME280;49970;54.976;73.248;2023-05-20T11:18:33;101159.97;;;21.69;36.82
63819;BME280;49970;54.976;73.248;2023-05-20T11:21:01;101149.06;;;21.71;36.61
63819;BME280;49970;54.976;73.248;2023-05-20T11:23:28;101143.66;;;21.71;36.90
63819;BME280;49970;54.976;73.248;2023-05-20T11:25:55;101147.56;;;21.76;36.73
63819;BME280;49970;54.976;73.248;2023-05-20T11:28:22;101142.00;;;21.78;36.64
63819;BME280;49970;54.976;73.248;2023-05-20T11:30:50;101147.25;;;21.79;36.75
63819;BME280;49970;54.976;73.248;2023-05-20T11:33:17;101144.38;;;21.81;36.32
63819;BME280;49970;54.976;73.248;2023-05-20T11:35:49;101140.50;;;21.83;36.63
63819;BME280;49970;54.976;73.248;2023-05-20T11:38:15;101142.72;;;21.88;36.97
63819;BME280;49970;54.976;73.248;2023-05-20T11:40:46;101135.81;;;21.94;36.40
63819;BME280;49970;54.976;73.248;2023-05-20T11:43:15;101151.50;;;21.98;36.39
63819;BME280;49970;54.976;73.248;2023-05-20T11:45:46;101138.19;;;21.97;36.72
63819;BME280;49970;54.976;73.248;2023-05-20T11:48:13;101138.38;;;21.95;36.65
63819;BME280;49970;54.976;73.248;2023-05-20T11:50:44;101146.13;;;21.98;36.97
63819;BME280;49970;54.976;73.248;2023-05-20T11:53:16;101143.41;;;21.98;36.42
63819;BME280;49970;54.976;73.248;2023-05-20T11:55:52;101139.22;;;21.96;36.34
63819;BME280;49970;54.976;73.248;2023-05-20T11:58:23;101140.06;;;21.96;36.25
63819;BME280;49970;54.976;73.248;2023-05-20T12:00:50;101127.91;;;21.92;35.91
63819;BME280;49970;54.976;73.248;2023-05-20T12:03:17;101134.84;;;21.95;36.25
63819;BME280;49970;54.976;73.248;2023-05-20T12:05:44;101122.50;;;21.92;36.25
63819;BME280;49970;54.976;73.248;2023-05-20T12:08:12;101127.59;;;21.95;35.77
63819;BME280;49970;54.976;73.248;2023-05-20T12:10:39;101125.88;;;21.94;35.90
63819;BME280;49970;54.976;73.248;2023-05-20T12:13:07;101121.34;;;21.95;36.03
63819;BME280;49970;54.976;73.248;2023-05-20T12:15:34;101118.66;;;21.95;35.95
63819;BME280;49970;54.976;73.248;2023-05-20T12:18:03;101121.53;;;22.01;35.68
63819;BME280;49970;54.976;73.248;2023-05-20T12:20:30;101134.00;;;22.02;35.53
63819;BME280;49970;54.976;73.248;2023-05-20T12:22:59;101125.25;;;22.00;35.77
63819;BME280;49970;54.976;73.248;2023-05-20T12:25:26;101133.97;;;21.94;35.64
63819;BME280;49970;54.976;73.248;2023-05-20T12:27:54;101132.78;;;21.88;35.76
63819;BME280;49970;54.976;73.248;2023-05-20T12:30:21;101135.44;;;21.80;35.84
63819;BME280;49970;54.976;73.248;2023-05-20T12:32:48;101122.75;;;21.73;35.99
63819;BME280;49970;54.976;73.248;2023-05-20T12:35:36;101138.91;;;21.64;35.81
63819;BME280;49970;54.976;73.248;2023-05-20T12:38:02;101142.06;;;21.60;36.07
63819;BME280;49970;54.976;73.248;2023-05-20T12:40:29;101150.66;;;21.55;35.93
63819;BME280;49970;54.976;73.248;2023-05-20T12:43:00;101141.88;;;21.53;36.23
63819;BME280;49970;54.976;73.248;2023-05-20T12:45:27;101142.38;;;21.49;36.32
63819;BME280;49970;54.976;73.248;2023-05-20T12:47:54;101139.69;;;21.49;36.50
63819;BME280;49970;54.976;73.248;2023-05-20T12:50:21;101135.97;;;21.50;36.53
63819;BME280;49970;54.976;73.248;2023-05-20T12:52:48;101136.97;;;21.49;36.42
63819;BME280;49970;54.976;73.248;2023-05-20T12:55:15;101145.91;;;21.49;36.30
63819;BME280;49970;54.976;73.248;2023-05-20T12:57:43;101132.44;;;21.49;36.63
63819;BME280;49970;54.976;73.248;2023-05-20T13:00:10;101115.69;;;21.37;36.33
63819;BME280;49970;54.976;73.248;2023-05-20T13:02:38;101133.59;;;21.47;36.49
63819;BME280;49970;54.976;73.248;2023-05-20T13:05:05;101136.97;;;21.49;36.61
63819;BME280;49970;54.976;73.248;2023-05-20T13:07:31;101132.75;;;21.46;36.25
63819;BME280;49970;54.976;73.248;2023-05-20T13:09:58;101139.28;;;21.44;36.63
63819;BME280;49970;54.976;73.248;2023-05-20T13:12:24;101143.00;;;21.43;36.55
63819;BME280;49970;54.976;73.248;2023-05-20T13:14:51;101138.94;;;21.38;36.30
63819;BME280;49970;54.976;73.248;2023-05-20T13:17:17;101142.28;;;21.32;36.42
63819;BME280;49970;54.976;73.248;2023-05-20T13:19:43;101143.69;;;21.27;35.94
63819;BME280;49970;54.976;73.248;2023-05-20T13:22:13;101138.25;;;21.19;36.16
63819;BME280;49970;54.976;73.248;2023-05-20T13:24:39;101144.34;;;21.21;36.48
63819;BME280;49970;54.976;73.248;2023-05-20T13:27:05;101140.09;;;21.18;36.23
63819;BME280;49970;54.976;73.248;2023-05-20T13:29:31;101145.81;;;21.15;36.69
63819;BME280;49970;54.976;73.248;2023-05-20T13:31:58;101144.13;;;21.14;36.57
63819;BME280;49970;54.976;73.248;2023-05-20T13:34:24;101141.75;;;21.11;36.58